sensor_id;sensor_type;location;lat;lon;timestamp;pressure;altitude;pressure_sealevel;temperature;humidity
64713;BME280;51140;45.340;5.980;2022-09-27T00:01:00;98522.25;;;10.42;100.00
64713;BME280;51140;45.340;5.980;2022-09-27T00:03:27;98511.78;;;10.43;100.00
64713;BME280;51140;45.340;5.980;2022-09-27T00:08:36;98503.78;;;10.27;100.00
64713;BME280;51140;45.340;5.980;2022-09-27T00:11:02;98507.59;;;10.20;100.00
64713;BME280;51140;45.340;5.980;2022-09-27T00:13:28;98499.09;;;10.15;100.00
64713;BME280;51140;45.340;5.980;2022-09-27T00:16:01;98494.16;;;10.29;100.00
64713;BME280;51140;45.340;5.980;2022-09-27T00:18:29;98482.34;;;10.41;100.00
64713;BME280;51140;45.340;5.980;2022-09-27T00:20:55;98489.19;;;10.44;100.00
64713;BME280;51140;45.340;5.980;2022-09-27T00:23:20;98493.25;;;10.49;100.00
64713;BME280;51140;45.340;5.980;2022-09-27T00:25:55;98482.63;;;10.54;100.00
64713;BME280;51140;45.340;5.980;2022-09-27T00:28:21;98477.81;;;10.63;100.00
64713;BME280;51140;45.340;5.980;2022-09-27T00:30:46;98494.94;;;10.69;100.00
64713;BME280;51140;45.340;5.980;2022-09-27T00:33:12;98497.28;;;10.56;100.00
64713;BME280;51140;45.340;5.980;2022-09-27T00:35:37;98490.44;;;10.54;100.00
64713;BME280;51140;45.340;5.980;2022-09-27T00:38:02;98474.63;;;10.76;100.00
64713;BME280;51140;45.340;5.980;2022-09-27T00:40:27;98486.75;;;10.77;100.00
64713;BME280;51140;45.340;5.980;2022-09-27T00:42:53;98477.91;;;10.81;100.00
64713;BME280;51140;45.340;5.980;2022-09-27T00:45:18;98476.63;;;10.71;100.00
64713;BME280;51140;45.340;5.980;2022-09-27T00:47:48;98481.97;;;10.67;100.00
64713;BME280;51140;45.340;5.980;2022-09-27T00:50:23;98482.75;;;10.70;100.00
64713;BME280;51140;45.340;5.980;2022-09-27T00:55:20;98486.81;;;10.75;100.00
64713;BME280;51140;45.340;5.980;2022-09-27T00:57:47;98486.75;;;10.77;100.00
64713;BME280;51140;45.340;5.980;2022-09-27T01:00:14;98496.47;;;10.73;100.00
64713;BME280;51140;45.340;5.980;2022-09-27T01:02:41;98494.88;;;10.71;100.00
64713;BME280;51140;45.340;5.980;2022-09-27T01:05:07;98489.78;;;10.67;100.00
64713;BME280;51140;45.340;5.980;2022-09-27T01:07:34;98490.94;;;10.62;100.00
64713;BME280;51140;45.340;5.980;2022-09-27T01:09:59;98483.75;;;10.67;100.00
64713;BME280;51140;45.340;5.980;2022-09-27T01:17:39;98469.72;;;10.70;100.00
64713;BME280;51140;45.340;5.980;2022-09-27T01:43:45;98526.75;;;10.38;100.00
64713;BME280;51140;45.340;5.980;2022-09-27T01:46:14;98523.66;;;10.49;100.00
64713;BME280;51140;45.340;5.980;2022-09-27T01:48:43;98525.63;;;10.62;100.00
64713;BME280;51140;45.340;5.980;2022-09-27T01:51:12;98515.16;;;10.64;100.00
64713;BME280;51140;45.340;5.980;2022-09-27T01:53:40;98505.22;;;10.53;100.00
64713;BME280;51140;45.340;5.980;2022-09-27T01:56:12;98491.00;;;10.42;100.00
64713;BME280;51140;45.340;5.980;2022-09-27T02:01:04;98486.19;;;10.70;100.00
64713;BME280;51140;45.340;5.980;2022-09-27T02:03:32;98468.81;;;10.71;100.00
64713;BME280;51140;45.340;5.980;2022-09-27T02:06:03;98476.56;;;10.53;100.00
64713;BME280;51140;45.340;5.980;2022-09-27T02:08:37;98465.44;;;10.68;100.00
64713;BME280;51140;45.340;5.980;2022-09-27T02:11:05;98463.53;;;10.72;100.00
64713;BME280;51140;45.340;5.980;2022-09-27T02:18:27;98463.56;;;10.53;100.00
64713;BME280;51140;45.340;5.980;2022-09-27T02:20:55;98462.50;;;10.57;100.00
64713;BME280;51140;45.340;5.980;2022-09-27T02:23:28;98455.31;;;10.62;100.00
64713;BME280;51140;45.340;5.980;2022-09-27T02:25:56;98464.09;;;10.60;100.00
64713;BME280;51140;45.340;5.980;2022-09-27T02:31:03;98471.25;;;10.74;100.00
64713;BME280;51140;45.340;5.980;2022-09-27T02:33:29;98477.19;;;10.58;100.00
64713;BME280;51140;45.340;5.980;2022-09-27T02:35:55;98482.63;;;10.54;100.00
64713;BME280;51140;45.340;5.980;2022-09-27T02:38:21;98492.06;;;10.56;100.00
64713;BME280;51140;45.340;5.980;2022-09-27T02:40:46;98501.75;;;10.72;100.00
64713;BME280;51140;45.340;5.980;2022-09-27T02:43:12;98502.59;;;10.72;100.00
64713;BME280;51140;45.340;5.980;2022-09-27T02:45:45;98511.69;;;10.63;100.00
64713;BME280;51140;45.340;5.980;2022-09-27T02:48:25;98511.78;;;10.43;100.00
64713;BME280;51140;45.340;5.980;2022-09-27T02:51:19;98509.97;;;10.25;100.00
64713;BME280;51140;45.340;5.980;2022-09-27T02:56:26;98498.00;;;10.21;100.00
64713;BME280;51140;45.340;5.980;2022-09-27T03:04:19;98479.81;;;10.19;100.00
64713;BME280;51140;45.340;5.980;2022-09-27T03:06:47;98471.13;;;10.39;100.00
64713;BME280;51140;45.340;5.980;2022-09-27T03:09:17;98471.63;;;10.28;100.00
64713;BME280;51140;45.340;5.980;2022-09-27T03:11:42;98464.03;;;10.24;100.00
64713;BME280;51140;45.340;5.980;2022-09-27T03:14:08;98460.50;;;10.25;100.00
64713;BME280;51140;45.340;5.980;2022-09-27T03:16:33;98456.81;;;10.10;100.00
64713;BME280;51140;45.340;5.980;2022-09-27T03:18:58;98454.50;;;10.04;100.00
64713;BME280;51140;45.340;5.980;2022-09-27T03:21:24;98442.75;;;10.14;100.00
64713;BME280;51140;45.340;5.980;2022-09-27T03:23:49;98432.34;;;10.14;100.00
64713;BME280;51140;45.340;5.980;2022-09-27T03:26:14;98416.50;;;10.19;100.00
64713;BME280;51140;45.340;5.980;2022-09-27T03:28:39;98415.66;;;10.18;100.00
64713;BME280;51140;45.340;5.980;2022-09-27T03:31:04;98403.44;;;10.20;100.00
64713;BME280;51140;45.340;5.980;2022-09-27T03:33:30;98398.50;;;10.14;100.00
64713;BME280;51140;45.340;5.980;2022-09-27T03:35:55;98390.69;;;10.14;100.00
64713;BME280;51140;45.340;5.980;2022-09-27T03:38:21;98389.75;;;10.15;100.00
64713;BME280;51140;45.340;5.980;2022-09-27T03:40:46;98383.09;;;10.28;100.00
64713;BME280;51140;45.340;5.980;2022-09-27T03:43:12;98381.28;;;10.30;100.00
64713;BME280;51140;45.340;5.980;2022-09-27T03:45:37;98394.34;;;10.29;100.00
64713;BME280;51140;45.340;5.980;2022-09-27T03:48:02;98391.81;;;10.27;100.00
64713;BME280;51140;45.340;5.980;2022-09-27T03:50:28;98392.22;;;10.18;100.00
64713;BME280;51140;45.340;5.980;2022-09-27T03:52:53;98386.75;;;10.24;100.00
64713;BME280;51140;45.340;5.980;2022-09-27T03:55:18;98376.84;;;10.32;100.00
64713;BME280;51140;45.340;5.980;2022-09-27T03:57:44;98372.69;;;10.28;100.00
64713;BME280;51140;45.340;5.980;2022-09-27T04:00:10;98376.84;;;10.32;100.00
64713;BME280;51140;45.340;5.980;2022-09-27T04:02:36;98369.09;;;10.31;100.00
64713;BME280;51140;45.340;5.980;2022-09-27T04:05:01;98371.91;;;10.45;100.00
64713;BME280;51140;45.340;5.980;2022-09-27T04:07:26;98356.13;;;10.48;100.00
64713;BME280;51140;45.340;5.980;2022-09-27T04:09:52;98343.59;;;10.56;100.00
64713;BME280;51140;45.340;5.980;2022-09-27T04:12:17;98352.91;;;10.24;100.00
64713;BME280;51140;45.340;5.980;2022-09-27T04:14:42;98352.19;;;10.40;100.00
64713;BME280;51140;45.340;5.980;2022-09-27T04:17:08;98342.06;;;10.33;100.00
64713;BME280;51140;45.340;5.980;2022-09-27T04:19:33;98340.81;;;10.42;100.00
64713;BME280;51140;45.340;5.980;2022-09-27T04:21:58;98344.19;;;10.44;100.00
64713;BME280;51140;45.340;5.980;2022-09-27T04:24:23;98344.97;;;10.27;100.00
64713;BME280;51140;45.340;5.980;2022-09-27T04:26:49;98350.38;;;10.23;100.00
64713;BME280;51140;45.340;5.980;2022-09-27T04:29:14;98347.91;;;10.20;100.00
64713;BME280;51140;45.340;5.980;2022-09-27T04:31:40;98355.31;;;10.10;100.00
64713;BME280;51140;45.340;5.980;2022-09-27T04:34:08;98346.16;;;10.01;100.00
64713;BME280;51140;45.340;5.980;2022-09-27T04:36:33;98352.78;;;10.09;100.00
64713;BME280;51140;45.340;5.980;2022-09-27T04:38:59;98358.38;;;9.99;100.00
64713;BME280;51140;45.340;5.980;2022-09-27T04:41:25;98366.47;;;9.93;100.00
64713;BME280;51140;45.340;5.980;2022-09-27T04:43:52;98350.94;;;10.11;100.00
64713;BME280;51140;45.340;5.980;2022-09-27T04:46:18;98353.75;;;10.25;100.00
64713;BME280;51140;45.340;5.980;2022-09-27T04:48:45;98345.81;;;10.28;100.00
64713;BME280;51140;45.340;5.980;2022-09-27T04:51:10;98340.09;;;10.20;100.00
64713;BME280;51140;45.340;5.980;2022-09-27T04:53:35;98335.59;;;10.04;100.00
64713;BME280;51140;45.340;5.980;2022-09-27T04:56:01;98327.28;;;10.15;100.00
64713;BME280;51140;45.340;5.980;2022-09-27T04:58:31;98327.38;;;10.14;100.00
64713;BME280;51140;45.340;5.980;2022-09-27T05:00:57;98323.91;;;9.94;100.00
64713;BME280;51140;45.340;5.980;2022-09-27T05:03:23;98326.81;;;9.88;100.00
64713;BME280;51140;45.340;5.980;2022-09-27T05:05:48;98331.94;;;10.09;100.00
64713;BME280;51140;45.340;5.980;2022-09-27T05:08:14;98338.06;;;10.08;100.00
64713;BME280;51140;45.340;5.980;2022-09-27T05:10:39;98346.22;;;10.00;100.00
64713;BME280;51140;45.340;5.980;2022-09-27T05:13:04;98354.75;;;10.03;100.00
64713;BME280;51140;45.340;5.980;2022-09-27T05:15:30;98358.13;;;10.05;100.00
64713;BME280;51140;45.340;5.980;2022-09-27T05:17:55;98374.91;;;9.98;100.00
64713;BME280;51140;45.340;5.980;2022-09-27T05:20:22;98378.78;;;9.90;100.00
64713;BME280;51140;45.340;5.980;2022-09-27T05:22:49;98386.38;;;9.76;100.00
64713;BME280;51140;45.340;5.980;2022-09-27T05:25:14;98386.84;;;9.65;100.00
64713;BME280;51140;45.340;5.980;2022-09-27T05:27:39;98395.72;;;9.59;100.00
64713;BME280;51140;45.340;5.980;2022-09-27T05:30:05;98387.75;;;9.64;100.00
64713;BME280;51140;45.340;5.980;2022-09-27T05:32:32;98396.00;;;9.73;100.00
64713;BME280;51140;45.340;5.980;2022-09-27T05:34:57;98399.16;;;9.80;100.00
64713;BME280;51140;45.340;5.980;2022-09-27T05:37:22;98394.50;;;9.68;100.00
64713;BME280;51140;45.340;5.980;2022-09-27T05:39:48;98401.19;;;9.53;100.00
64713;BME280;51140;45.340;5.980;2022-09-27T05:42:14;98393.47;;;9.52;100.00
64713;BME280;51140;45.340;5.980;2022-09-27T05:44:39;98399.59;;;9.51;100.00
64713;BME280;51140;45.340;5.980;2022-09-27T05:47:05;98393.97;;;9.60;100.00
64713;BME280;51140;45.340;5.980;2022-09-27T05:49:31;98405.63;;;9.71;100.00
64713;BME280;51140;45.340;5.980;2022-09-27T05:51:56;98405.84;;;9.86;100.00
64713;BME280;51140;45.340;5.980;2022-09-27T05:54:22;98407.69;;;9.84;100.00
64713;BME280;51140;45.340;5.980;2022-09-27T05:56:47;98414.63;;;9.64;100.00
64713;BME280;51140;45.340;5.980;2022-09-27T05:59:12;98413.16;;;9.57;100.00
64713;BME280;51140;45.340;5.980;2022-09-27T06:01:38;98409.47;;;9.63;100.00
64713;BME280;51140;45.340;5.980;2022-09-27T06:04:03;98407.78;;;9.62;100.00
64713;BME280;51140;45.340;5.980;2022-09-27T06:06:29;98411.22;;;9.62;100.00
64713;BME280;51140;45.340;5.980;2022-09-27T06:08:54;98414.47;;;9.67;100.00
64713;BME280;51140;45.340;5.980;2022-09-27T06:11:19;98409.78;;;9.76;100.00
64713;BME280;51140;45.340;5.980;2022-09-27T06:13:45;98415.19;;;9.90;100.00
64713;BME280;51140;45.340;5.980;2022-09-27T06:16:10;98410.97;;;9.87;100.00
64713;BME280;51140;45.340;5.980;2022-09-27T06:18:36;98420.34;;;9.91;100.00
64713;BME280;51140;45.340;5.980;2022-09-27T06:21:02;98419.88;;;10.02;100.00
64713;BME280;51140;45.340;5.980;2022-09-27T06:23:28;98428.47;;;10.04;100.00
64713;BME280;51140;45.340;5.980;2022-09-27T06:25:54;98425.22;;;10.18;100.00
64713;BME280;51140;45.340;5.980;2022-09-27T06:28:19;98420.94;;;10.17;100.00
64713;BME280;51140;45.340;5.980;2022-09-27T06:30:46;98429.41;;;10.22;100.00
64713;BME280;51140;45.340;5.980;2022-09-27T06:33:12;98433.63;;;10.24;100.00
64713;BME280;51140;45.340;5.980;2022-09-27T06:35:38;98429.34;;;10.23;100.00
64713;BME280;51140;45.340;5.980;2022-09-27T06:38:07;98423.16;;;10.45;100.00
64713;BME280;51140;45.340;5.980;2022-09-27T06:40:34;98421.41;;;10.45;100.00
64713;BME280;51140;45.340;5.980;2022-09-27T06:43:03;98429.47;;;10.58;100.00
64713;BME280;51140;45.340;5.980;2022-09-27T06:45:28;98427.81;;;10.74;100.00
64713;BME280;51140;45.340;5.980;2022-09-27T06:47:56;98427.16;;;10.88;100.00
64713;BME280;51140;45.340;5.980;2022-09-27T06:50:21;98429.84;;;10.86;100.00
64713;BME280;51140;45.340;5.980;2022-09-27T06:52:47;98432.47;;;10.86;100.00
64713;BME280;51140;45.340;5.980;2022-09-27T06:55:13;98439.28;;;10.89;100.00
64713;BME280;51140;45.340;5.980;2022-09-27T06:57:38;98436.22;;;10.98;100.00
64713;BME280;51140;45.340;5.980;2022-09-27T07:00:22;98437.91;;;10.82;100.00
64713;BME280;51140;45.340;5.980;2022-09-27T07:02:54;98427.41;;;10.64;100.00
64713;BME280;51140;45.340;5.980;2022-09-27T07:05:25;98426.53;;;10.47;100.00
64713;BME280;51140;45.340;5.980;2022-09-27T07:07:51;98426.94;;;10.56;100.00
64713;BME280;51140;45.340;5.980;2022-09-27T07:10:20;98431.94;;;10.61;100.00
64713;BME280;51140;45.340;5.980;2022-09-27T07:12:45;98434.25;;;10.67;100.00
64713;BME280;51140;45.340;5.980;2022-09-27T07:15:13;98431.97;;;10.78;100.00
64713;BME280;51140;45.340;5.980;2022-09-27T07:17:39;98442.25;;;10.81;100.00
64713;BME280;51140;45.340;5.980;2022-09-27T07:20:05;98445.34;;;11.07;100.00
64713;BME280;51140;45.340;5.980;2022-09-27T07:22:30;98448.56;;;11.12;100.00
64713;BME280;51140;45.340;5.980;2022-09-27T07:24:55;98443.59;;;11.07;100.00
64713;BME280;51140;45.340;5.980;2022-09-27T07:27:20;98438.69;;;11.18;100.00
64713;BME280;51140;45.340;5.980;2022-09-27T07:29:46;98439.91;;;11.11;100.00
64713;BME280;51140;45.340;5.980;2022-09-27T07:32:11;98441.97;;;11.05;100.00
64713;BME280;51140;45.340;5.980;2022-09-27T07:34:36;98444.00;;;11.34;100.00
64713;BME280;51140;45.340;5.980;2022-09-27T07:37:02;98433.34;;;11.39;100.00
64713;BME280;51140;45.340;5.980;2022-09-27T07:39:29;98435.47;;;11.48;100.00
64713;BME280;51140;45.340;5.980;2022-09-27T07:41:55;98428.09;;;11.56;100.00
64713;BME280;51140;45.340;5.980;2022-09-27T07:44:20;98432.38;;;11.74;100.00
64713;BME280;51140;45.340;5.980;2022-09-27T07:46:45;98425.38;;;11.92;100.00
64713;BME280;51140;45.340;5.980;2022-09-27T07:49:10;98429.16;;;11.86;100.00
64713;BME280;51140;45.340;5.980;2022-09-27T07:51:36;98428.25;;;11.87;100.00
64713;BME280;51140;45.340;5.980;2022-09-27T07:54:01;98436.06;;;12.05;100.00
64713;BME280;51140;45.340;5.980;2022-09-27T07:56:26;98428.56;;;12.14;100.00
64713;BME280;51140;45.340;5.980;2022-09-27T07:58:52;98420.81;;;12.13;100.00
64713;BME280;51140;45.340;5.980;2022-09-27T08:01:17;98418.78;;;12.02;100.00
64713;BME280;51140;45.340;5.980;2022-09-27T08:03:42;98378.28;;;12.42;100.00
64713;BME280;51140;45.340;5.980;2022-09-27T08:06:08;98356.47;;;12.73;100.00
64713;BME280;51140;45.340;5.980;2022-09-27T08:08:34;98289.94;;;12.79;100.00
64713;BME280;51140;45.340;5.980;2022-09-27T08:10:59;98210.50;;;12.81;100.00
64713;BME280;51140;45.340;5.980;2022-09-27T08:13:25;98150.81;;;12.60;100.00
64713;BME280;51140;45.340;5.980;2022-09-27T08:15:50;98054.25;;;13.13;100.00
64713;BME280;51140;45.340;5.980;2022-09-27T08:18:16;97897.72;;;13.07;100.00
64713;BME280;51140;45.340;5.980;2022-09-27T08:20:42;97813.19;;;13.34;100.00
64713;BME280;51140;45.340;5.980;2022-09-27T08:23:07;97735.50;;;13.09;100.00
64713;BME280;51140;45.340;5.980;2022-09-27T08:25:32;97672.03;;;12.81;100.00
64713;BME280;51140;45.340;5.980;2022-09-27T08:27:59;97672.19;;;12.40;100.00
64713;BME280;51140;45.340;5.980;2022-09-27T08:30:24;97615.88;;;12.74;100.00
64713;BME280;51140;45.340;5.980;2022-09-27T08:32:54;97638.03;;;12.56;100.00
64713;BME280;51140;45.340;5.980;2022-09-27T08:35:19;97703.31;;;12.83;100.00
64713;BME280;51140;45.340;5.980;2022-09-27T08:37:51;97731.19;;;12.70;100.00
64713;BME280;51140;45.340;5.980;2022-09-27T08:40:16;97764.63;;;12.77;100.00
64713;BME280;51140;45.340;5.980;2022-09-27T08:42:51;97804.59;;;12.79;100.00
64713;BME280;51140;45.340;5.980;2022-09-27T08:45:23;97788.84;;;12.94;100.00
64713;BME280;51140;45.340;5.980;2022-09-27T08:47:53;97841.78;;;13.10;100.00
64713;BME280;51140;45.340;5.980;2022-09-27T08:52:47;97889.25;;;13.31;100.00
64713;BME280;51140;45.340;5.980;2022-09-27T08:57:43;97789.31;;;13.38;100.00
64713;BME280;51140;45.340;5.980;2022-09-27T09:00:13;97694.66;;;13.57;100.00
64713;BME280;51140;45.340;5.980;2022-09-27T09:02:39;97681.00;;;13.77;100.00
64713;BME280;51140;45.340;5.980;2022-09-27T09:05:06;97643.72;;;13.98;100.00
64713;BME280;51140;45.340;5.980;2022-09-27T09:15:30;97464.59;;;13.54;100.00
64713;BME280;51140;45.340;5.980;2022-09-27T09:23:27;97543.56;;;14.29;100.00
64713;BME280;51140;45.340;5.980;2022-09-27T09:36:46;97365.81;;;15.64;100.00
64713;BME280;51140;45.340;5.980;2022-09-27T09:39:15;97198.94;;;15.81;100.00
64713;BME280;51140;45.340;5.980;2022-09-27T09:41:59;97097.91;;;16.43;100.00
64713;BME280;51140;45.340;5.980;2022-09-27T09:44:26;96988.97;;;16.92;100.00
64713;BME280;51140;45.340;5.980;2022-09-27T09:46:54;97021.34;;;15.70;100.00
64713;BME280;51140;45.340;5.980;2022-09-27T09:51:51;97094.72;;;15.81;100.00
64713;BME280;51140;45.340;5.980;2022-09-27T09:54:28;97053.28;;;15.75;100.00
64713;BME280;51140;45.340;5.980;2022-09-27T10:02:39;97117.84;;;14.77;100.00
64713;BME280;51140;45.340;5.980;2022-09-27T10:04:57;97165.97;;;14.34;100.00
64713;BME280;51140;45.340;5.980;2022-09-27T10:07:22;97190.09;;;14.37;100.00
64713;BME280;51140;45.340;5.980;2022-09-27T10:09:48;97183.97;;;14.80;100.00
64713;BME280;51140;45.340;5.980;2022-09-27T10:12:14;97172.63;;;15.00;100.00
64713;BME280;51140;45.340;5.980;2022-09-27T10:14:39;97186.47;;;14.61;100.00
64713;BME280;51140;45.340;5.980;2022-09-27T10:17:05;97209.84;;;14.21;100.00
64713;BME280;51140;45.340;5.980;2022-09-27T10:19:34;97156.09;;;15.40;100.00
64713;BME280;51140;45.340;5.980;2022-09-27T10:22:04;97102.75;;;15.80;100.00
64713;BME280;51140;45.340;5.980;2022-09-27T10:24:54;97001.09;;;16.75;100.00
64713;BME280;51140;45.340;5.980;2022-09-27T10:27:20;96931.66;;;18.10;100.00
64713;BME280;51140;45.340;5.980;2022-09-27T10:29:45;96818.28;;;18.95;100.00
64713;BME280;51140;45.340;5.980;2022-09-27T10:32:18;96820.25;;;17.05;100.00
64713;BME280;51140;45.340;5.980;2022-09-27T10:34:45;96926.97;;;16.89;100.00
64713;BME280;51140;45.340;5.980;2022-09-27T10:37:17;96959.63;;;17.14;100.00
64713;BME280;51140;45.340;5.980;2022-09-27T10:39:44;97006.13;;;16.59;100.00
64713;BME280;51140;45.340;5.980;2022-09-27T10:44:44;96926.00;;;16.26;100.00
64713;BME280;51140;45.340;5.980;2022-09-27T10:47:10;96947.28;;;16.33;100.00
64713;BME280;51140;45.340;5.980;2022-09-27T10:49:40;96968.97;;;16.35;100.00
64713;BME280;51140;45.340;5.980;2022-09-27T10:52:09;97077.59;;;15.87;100.00
64713;BME280;51140;45.340;5.980;2022-09-27T10:54:38;97072.19;;;15.88;100.00
64713;BME280;51140;45.340;5.980;2022-09-27T10:57:08;97078.84;;;15.83;100.00
64713;BME280;51140;45.340;5.980;2022-09-27T10:59:41;97058.81;;;15.62;100.00
64713;BME280;51140;45.340;5.980;2022-09-27T11:05:08;97022.31;;;15.59;100.00
64713;BME280;51140;45.340;5.980;2022-09-27T11:07:36;96985.53;;;15.98;100.00
64713;BME280;51140;45.340;5.980;2022-09-27T11:10:06;96996.03;;;16.08;100.00
64713;BME280;51140;45.340;5.980;2022-09-27T11:12:46;97033.91;;;16.05;100.00
64713;BME280;51140;45.340;5.980;2022-09-27T11:15:29;97042.34;;;16.65;100.00
64713;BME280;51140;45.340;5.980;2022-09-27T11:18:00;97001.03;;;15.82;100.00
64713;BME280;51140;45.340;5.980;2022-09-27T11:20:38;97076.72;;;16.35;100.00
64713;BME280;51140;45.340;5.980;2022-09-27T11:33:59;97073.31;;;15.95;100.00
64713;BME280;51140;45.340;5.980;2022-09-27T11:42:09;97078.84;;;15.73;100.00
64713;BME280;51140;45.340;5.980;2022-09-27T11:47:08;96967.16;;;15.88;100.00
64713;BME280;51140;45.340;5.980;2022-09-27T12:09:38;96939.97;;;16.26;100.00
64713;BME280;51140;45.340;5.980;2022-09-27T12:12:09;96930.44;;;16.25;100.00
64713;BME280;51140;45.340;5.980;2022-09-27T12:14:43;96993.00;;;15.83;100.00
64713;BME280;51140;45.340;5.980;2022-09-27T12:17:20;97059.06;;;16.17;100.00
64713;BME280;51140;45.340;5.980;2022-09-27T12:19:48;96992.56;;;16.07;100.00
64713;BME280;51140;45.340;5.980;2022-09-27T12:22:17;96904.63;;;16.11;100.00
64713;BME280;51140;45.340;5.980;2022-09-27T12:24:43;96898.69;;;16.37;100.00
64713;BME280;51140;45.340;5.980;2022-09-27T12:27:15;96880.91;;;16.85;100.00
64713;BME280;51140;45.340;5.980;2022-09-27T12:29:43;96874.56;;;16.78;100.00
64713;BME280;51140;45.340;5.980;2022-09-27T12:32:19;96921.50;;;15.99;100.00
64713;BME280;51140;45.340;5.980;2022-09-27T12:34:55;97010.81;;;15.99;100.00
64713;BME280;51140;45.340;5.980;2022-09-27T12:37:26;96947.28;;;16.33;100.00
64713;BME280;51140;45.340;5.980;2022-09-27T12:45:03;96831.59;;;16.70;100.00
64713;BME280;51140;45.340;5.980;2022-09-27T12:52:20;96863.09;;;16.52;100.00
64713;BME280;51140;45.340;5.980;2022-09-27T12:57:21;96930.97;;;15.53;100.00
64713;BME280;51140;45.340;5.980;2022-09-27T13:13:02;97032.59;;;15.22;100.00
64713;BME280;51140;45.340;5.980;2022-09-27T13:15:33;96931.09;;;15.13;100.00
64713;BME280;51140;45.340;5.980;2022-09-27T13:18:01;96983.88;;;15.49;100.00
64713;BME280;51140;45.340;5.980;2022-09-27T13:20:35;97056.31;;;15.61;100.00
64713;BME280;51140;45.340;5.980;2022-09-27T13:23:03;97016.78;;;15.91;100.00
64713;BME280;51140;45.340;5.980;2022-09-27T13:33:28;96904.31;;;15.48;100.00
64713;BME280;51140;45.340;5.980;2022-09-27T13:46:44;97020.81;;;15.76;100.00
64713;BME280;51140;45.340;5.980;2022-09-27T13:49:13;97082.56;;;15.71;100.00
64713;BME280;51140;45.340;5.980;2022-09-27T13:51:45;96947.13;;;15.87;100.00
64713;BME280;51140;45.340;5.980;2022-09-27T13:56:57;96882.06;;;16.18;100.00
64713;BME280;51140;45.340;5.980;2022-09-27T13:59:23;96842.66;;;16.18;100.00
64713;BME280;51140;45.340;5.980;2022-09-27T14:01:58;96842.00;;;15.70;100.00
64713;BME280;51140;45.340;5.980;2022-09-27T14:04:36;96852.38;;;14.74;100.00
64713;BME280;51140;45.340;5.980;2022-09-27T14:07:06;96855.00;;;14.55;100.00
64713;BME280;51140;45.340;5.980;2022-09-27T14:09:39;96881.63;;;14.60;100.00
64713;BME280;51140;45.340;5.980;2022-09-27T14:12:09;96892.66;;;14.64;100.00
64713;BME280;51140;45.340;5.980;2022-09-27T14:14:35;96873.41;;;14.84;100.00
64713;BME280;51140;45.340;5.980;2022-09-27T14:17:02;96907.75;;;15.10;100.00
64713;BME280;51140;45.340;5.980;2022-09-27T14:19:31;96898.50;;;14.87;100.00
64713;BME280;51140;45.340;5.980;2022-09-27T14:21:56;96992.22;;;14.94;100.00
64713;BME280;51140;45.340;5.980;2022-09-27T14:24:31;97039.09;;;14.48;100.00
64713;BME280;51140;45.340;5.980;2022-09-27T14:27:11;97002.38;;;14.78;100.00
64713;BME280;51140;45.340;5.980;2022-09-27T14:29:41;97016.22;;;14.50;100.00
64713;BME280;51140;45.340;5.980;2022-09-27T14:32:09;97087.19;;;14.26;100.00
64713;BME280;51140;45.340;5.980;2022-09-27T14:34:35;97151.69;;;14.27;100.00
64713;BME280;51140;45.340;5.980;2022-09-27T14:37:00;97133.44;;;14.48;100.00
64713;BME280;51140;45.340;5.980;2022-09-27T14:39:44;97194.59;;;14.58;100.00
64713;BME280;51140;45.340;5.980;2022-09-27T14:42:18;97036.22;;;14.81;100.00
64713;BME280;51140;45.340;5.980;2022-09-27T14:44:44;96916.69;;;14.79;100.00
64713;BME280;51140;45.340;5.980;2022-09-27T14:49:45;96855.88;;;15.04;100.00
64713;BME280;51140;45.340;5.980;2022-09-27T14:52:19;96869.25;;;15.30;100.00
64713;BME280;51140;45.340;5.980;2022-09-27T14:54:53;96878.06;;;15.48;100.00
64713;BME280;51140;45.340;5.980;2022-09-27T14:57:19;96879.06;;;15.38;100.00
64713;BME280;51140;45.340;5.980;2022-09-27T14:59:44;96906.53;;;15.14;100.00
64713;BME280;51140;45.340;5.980;2022-09-27T15:02:14;96918.94;;;15.02;100.00
64713;BME280;51140;45.340;5.980;2022-09-27T15:04:42;96940.19;;;14.99;100.00
64713;BME280;51140;45.340;5.980;2022-09-27T15:07:10;96928.88;;;14.89;100.00
64713;BME280;51140;45.340;5.980;2022-09-27T15:09:36;96975.78;;;14.92;100.00
64713;BME280;51140;45.340;5.980;2022-09-27T15:12:03;96986.63;;;14.78;100.00
64713;BME280;51140;45.340;5.980;2022-09-27T15:14:29;97012.34;;;14.84;100.00
64713;BME280;51140;45.340;5.980;2022-09-27T15:16:57;96926.53;;;14.86;100.00
64713;BME280;51140;45.340;5.980;2022-09-27T15:19:26;96996.28;;;14.68;100.00
64713;BME280;51140;45.340;5.980;2022-09-27T15:21:53;97059.84;;;14.60;100.00
64713;BME280;51140;45.340;5.980;2022-09-27T15:27:20;96918.94;;;14.83;100.00
64713;BME280;51140;45.340;5.980;2022-09-27T15:29:47;97037.06;;;14.61;100.00
64713;BME280;51140;45.340;5.980;2022-09-27T15:32:13;97109.72;;;14.49;100.00
64713;BME280;51140;45.340;5.980;2022-09-27T15:34:40;97129.09;;;14.26;100.00
64713;BME280;51140;45.340;5.980;2022-09-27T15:37:05;97157.53;;;14.30;100.00
64713;BME280;51140;45.340;5.980;2022-09-27T15:42:11;97122.44;;;14.22;100.00
64713;BME280;51140;45.340;5.980;2022-09-27T15:47:03;97196.78;;;14.09;100.00
64713;BME280;51140;45.340;5.980;2022-09-27T15:49:29;97127.22;;;14.37;100.00
64713;BME280;51140;45.340;5.980;2022-09-27T15:51:56;97168.69;;;14.44;100.00
64713;BME280;51140;45.340;5.980;2022-09-27T15:54:22;97208.44;;;14.37;100.00
64713;BME280;51140;45.340;5.980;2022-09-27T15:56:48;97246.91;;;14.05;100.00
64713;BME280;51140;45.340;5.980;2022-09-27T15:59:18;97265.13;;;14.06;100.00
64713;BME280;51140;45.340;5.980;2022-09-27T16:01:44;97310.47;;;13.73;100.00
64713;BME280;51140;45.340;5.980;2022-09-27T16:04:10;97323.53;;;13.51;100.00